createdAt,value
2019-01-24T00:00:42.874Z,46.25
2019-01-24T00:03:10.711Z,47.95
2019-01-24T00:05:38.153Z,48.23
2019-01-24T00:08:05.796Z,48.20
2019-01-24T00:10:35.547Z,48.28
2019-01-24T00:13:02.984Z,47.53
2019-01-24T00:15:30.579Z,47.45
2019-01-24T00:17:58.650Z,54.58
2019-01-24T00:20:26.039Z,42.83
2019-01-24T00:22:53.447Z,51.25
2019-01-24T00:25:21.087Z,44.95
2019-01-24T00:27:48.772Z,47.78
2019-01-24T00:30:16.460Z,49.50
2019-01-24T00:32:43.988Z,43.80
2019-01-24T00:35:11.903Z,42.75
2019-01-24T00:37:39.304Z,51.20
2019-01-24T00:40:09.369Z,47.83
2019-01-24T00:42:36.791Z,56.88
2019-01-24T00:45:05.797Z,41.68
2019-01-24T00:47:33.216Z,46.77
2019-01-24T00:50:00.757Z,47.70
2019-01-24T00:52:28.191Z,49.03
2019-01-24T00:54:55.668Z,48.90
2019-01-24T00:57:23.766Z,54.13
2019-01-24T00:59:51.308Z,44.65
2019-01-24T01:02:18.715Z,44.25
2019-01-24T01:04:46.502Z,49.45
2019-01-24T01:07:13.935Z,46.58
2019-01-24T01:09:42.071Z,51.05
2019-01-24T01:12:09.934Z,51.80
2019-01-24T01:14:37.625Z,48.30
2019-01-24T01:17:05.224Z,55.03
2019-01-24T01:19:32.769Z,55.20
2019-01-24T01:22:00.164Z,46.00
2019-01-24T01:24:27.651Z,49.90
2019-01-24T01:26:55.092Z,48.28
2019-01-24T01:29:22.534Z,45.67
2019-01-24T01:31:49.979Z,48.17
2019-01-24T01:34:17.552Z,46.13
2019-01-24T01:36:44.919Z,44.55
2019-01-24T01:39:12.402Z,52.03
2019-01-24T01:41:39.879Z,46.28
2019-01-24T01:44:07.326Z,48.10
2019-01-24T01:46:34.753Z,46.98
2019-01-24T01:49:02.193Z,45.80
2019-01-24T01:51:29.618Z,49.73
2019-01-24T01:53:57.111Z,53.63
2019-01-24T01:56:24.660Z,40.30
2019-01-24T01:58:52.435Z,48.02
2019-01-24T02:01:19.937Z,50.45
2019-01-24T02:03:47.353Z,44.38
2019-01-24T02:06:14.836Z,44.63
2019-01-24T02:08:42.198Z,51.40
2019-01-24T02:11:09.822Z,48.85
2019-01-24T02:13:37.409Z,51.80
2019-01-24T02:16:05.705Z,47.98
2019-01-24T02:18:33.208Z,47.62
2019-01-24T02:21:00.675Z,44.42
2019-01-24T02:23:28.167Z,52.90
2019-01-24T02:25:56.026Z,45.03
2019-01-24T02:28:23.460Z,50.48
2019-01-24T02:30:50.956Z,51.98
2019-01-24T02:33:18.515Z,49.15
2019-01-24T02:35:45.932Z,53.00
2019-01-24T02:38:13.364Z,45.08
2019-01-24T02:40:40.758Z,52.38
2019-01-24T02:43:08.228Z,51.90
2019-01-24T02:45:35.772Z,42.73
2019-01-24T02:48:03.377Z,50.85
2019-01-24T02:50:30.908Z,47.78
2019-01-24T02:52:58.458Z,46.92
2019-01-24T02:55:25.932Z,44.05
2019-01-24T02:57:53.773Z,56.70
2019-01-24T03:00:21.859Z,40.28
2019-01-24T03:02:49.518Z,50.75
2019-01-24T03:05:18.817Z,46.55
2019-01-24T03:07:46.857Z,47.83
2019-01-24T03:10:14.391Z,53.08
2019-01-24T03:12:41.922Z,45.80
2019-01-24T03:15:10.904Z,59.08
2019-01-24T03:17:38.738Z,45.83
2019-01-24T03:20:06.988Z,40.95
2019-01-24T03:22:34.481Z,47.38
2019-01-24T03:25:01.938Z,47.75
2019-01-24T03:27:29.373Z,51.18
2019-01-24T03:29:56.824Z,52.13
2019-01-24T03:32:24.219Z,52.40
2019-01-24T03:34:51.649Z,43.23
2019-01-24T03:37:19.080Z,47.20
2019-01-24T03:39:47.879Z,51.18
2019-01-24T03:42:15.443Z,50.50
2019-01-24T03:44:42.944Z,47.23
2019-01-24T03:47:10.369Z,45.00
2019-01-24T03:49:37.865Z,42.08
2019-01-24T03:52:05.344Z,43.05
2019-01-24T03:54:33.332Z,49.13
2019-01-24T03:57:00.714Z,50.65
2019-01-24T03:59:28.316Z,45.88
2019-01-24T04:01:55.750Z,45.10
2019-01-24T04:04:23.276Z,45.03
2019-01-24T04:06:50.670Z,47.08
2019-01-24T04:09:18.215Z,49.93
2019-01-24T04:11:45.610Z,49.67
2019-01-24T04:14:13.015Z,43.98
2019-01-24T04:16:40.452Z,46.68
2019-01-24T04:19:07.920Z,51.08
2019-01-24T04:21:35.342Z,46.75
2019-01-24T04:24:02.753Z,55.33
2019-01-24T04:26:30.241Z,54.55
2019-01-24T04:28:57.688Z,46.45
2019-01-24T04:31:25.088Z,42.95
2019-01-24T04:33:52.599Z,45.65
2019-01-24T04:36:20.034Z,49.10
2019-01-24T04:38:47.538Z,45.30
2019-01-24T04:41:14.958Z,57.93
2019-01-24T04:43:42.863Z,48.75
2019-01-24T04:46:10.382Z,51.37
2019-01-24T04:48:37.860Z,52.15
2019-01-24T04:51:05.519Z,48.05
2019-01-24T04:53:33.219Z,45.55
2019-01-24T04:56:00.655Z,53.55
2019-01-24T04:58:28.096Z,45.83
2019-01-24T05:00:56.151Z,46.55
2019-01-24T05:03:23.553Z,44.67
2019-01-24T05:05:51.200Z,48.90
2019-01-24T05:08:18.681Z,54.20
2019-01-24T05:10:46.188Z,45.92
2019-01-24T05:13:13.664Z,51.60
2019-01-24T05:15:41.131Z,49.03
2019-01-24T05:18:08.563Z,49.05
2019-01-24T05:20:36.327Z,48.60
2019-01-24T05:23:03.813Z,41.73
2019-01-24T05:25:31.396Z,56.83
2019-01-24T05:27:58.789Z,45.58
2019-01-24T05:30:27.831Z,45.28
2019-01-24T05:32:55.463Z,48.38
2019-01-24T05:35:23.010Z,41.58
2019-01-24T05:37:50.560Z,46.15
2019-01-24T05:40:18.059Z,48.20
2019-01-24T05:42:48.446Z,51.75
2019-01-24T05:45:16.496Z,44.90
2019-01-24T05:47:44.063Z,44.45
2019-01-24T05:50:11.767Z,46.60
2019-01-24T05:52:39.394Z,44.23
2019-01-24T05:55:07.956Z,44.42
2019-01-24T05:57:35.536Z,52.38
2019-01-24T06:00:04.948Z,40.58
2019-01-24T06:02:32.533Z,53.10
2019-01-24T06:05:00.193Z,41.18
2019-01-24T06:07:27.904Z,53.23
2019-01-24T06:09:55.371Z,43.65
2019-01-24T06:12:23.240Z,50.28
2019-01-24T06:14:50.684Z,42.30
2019-01-24T06:17:18.177Z,52.48
2019-01-24T06:19:45.771Z,50.92
2019-01-24T06:22:13.389Z,47.33
2019-01-24T06:24:40.919Z,56.25
2019-01-24T06:27:08.368Z,49.83
2019-01-24T06:29:35.775Z,47.35
2019-01-24T06:32:03.725Z,52.03
2019-01-24T06:34:31.128Z,49.48
2019-01-24T06:36:58.762Z,49.70
2019-01-24T06:39:26.168Z,49.65
2019-01-24T06:42:00.027Z,48.83
2019-01-24T06:44:27.588Z,45.78
2019-01-24T06:46:55.048Z,51.77
2019-01-24T06:49:22.522Z,42.55
2019-01-24T06:51:50.383Z,48.65
2019-01-24T06:54:17.862Z,47.60
2019-01-24T06:56:45.396Z,45.90
2019-01-24T06:59:13.348Z,48.70
2019-01-24T07:01:40.764Z,46.37
2019-01-24T07:04:08.369Z,46.77
2019-01-24T07:06:35.872Z,53.73
2019-01-24T07:09:06.420Z,45.70
2019-01-24T07:11:33.824Z,48.02
2019-01-24T07:14:01.432Z,50.43
2019-01-24T07:16:29.143Z,43.75
2019-01-24T07:18:56.632Z,46.37
2019-01-24T07:21:24.116Z,48.63
2019-01-24T07:23:51.598Z,50.48
2019-01-24T07:26:19.077Z,53.20
2019-01-24T07:28:46.525Z,64.55
2019-01-24T07:31:14.208Z,58.58
2019-01-24T07:33:41.750Z,47.17
2019-01-24T07:36:09.254Z,52.48
2019-01-24T07:38:36.804Z,50.45
2019-01-24T07:41:04.309Z,54.80
2019-01-24T07:43:31.903Z,58.42
2019-01-24T07:45:59.480Z,60.43
2019-01-24T07:48:26.954Z,58.45
2019-01-24T07:50:54.542Z,61.40
2019-01-24T07:53:21.959Z,61.33
2019-01-24T07:55:49.565Z,55.10
2019-01-24T07:58:17.079Z,59.63
2019-01-24T08:00:44.539Z,56.30
2019-01-24T08:03:12.055Z,56.02
2019-01-24T08:05:43.174Z,56.25
2019-01-24T08:08:10.741Z,63.40
2019-01-24T08:10:38.202Z,61.33
2019-01-24T08:13:06.024Z,55.17
2019-01-24T08:15:33.523Z,59.90
2019-01-24T08:18:01.133Z,56.00
2019-01-24T08:20:28.860Z,56.10
2019-01-24T08:22:56.391Z,60.52
2019-01-24T08:25:23.932Z,63.63
2019-01-24T08:27:51.501Z,56.05
2019-01-24T08:30:27.236Z,62.70
2019-01-24T08:32:55.020Z,54.18
2019-01-24T08:35:22.668Z,63.45
2019-01-24T08:37:50.124Z,55.52
2019-01-24T08:40:18.241Z,61.60
2019-01-24T08:42:45.872Z,58.73
2019-01-24T08:45:13.519Z,64.40
2019-01-24T08:47:41.030Z,55.08
2019-01-24T08:50:11.684Z,57.33
2019-01-24T08:52:39.142Z,67.75
2019-01-24T08:55:11.215Z,51.23
2019-01-24T08:57:38.646Z,66.82
2019-01-24T09:00:07.534Z,60.92
2019-01-24T09:02:34.942Z,57.05
2019-01-24T09:05:02.620Z,60.92
2019-01-24T09:07:30.077Z,61.18
2019-01-24T09:09:59.514Z,56.15
2019-01-24T09:12:30.483Z,62.98
2019-01-24T09:14:56.867Z,55.95
2019-01-24T09:17:24.391Z,59.83
2019-01-24T09:19:51.963Z,54.75
2019-01-24T09:22:19.382Z,52.58
2019-01-24T09:24:47.011Z,61.18
2019-01-24T09:27:14.893Z,64.20
2019-01-24T09:29:42.383Z,51.88
2019-01-24T09:32:09.904Z,63.50
2019-01-24T09:34:37.460Z,58.17
2019-01-24T09:37:05.286Z,61.58
2019-01-24T09:39:32.743Z,58.52
2019-01-24T09:42:00.291Z,58.90
2019-01-24T09:44:27.746Z,52.08
2019-01-24T09:46:55.393Z,63.92
2019-01-24T09:49:22.962Z,61.33
2019-01-24T09:51:50.485Z,67.55
2019-01-24T09:54:18.622Z,67.40
2019-01-24T09:56:46.234Z,52.38
2019-01-24T09:59:13.821Z,60.73
2019-01-24T10:01:41.584Z,57.27
2019-01-24T10:04:09.143Z,60.65
2019-01-24T10:06:38.476Z,64.15
2019-01-24T10:09:07.765Z,60.30
2019-01-24T10:11:35.356Z,55.85
2019-01-24T10:14:03.185Z,55.60
2019-01-24T10:16:30.620Z,49.67
2019-01-24T10:18:58.094Z,51.05
2019-01-24T10:21:25.695Z,49.33
2019-01-24T10:23:53.197Z,55.60
2019-01-24T10:26:20.754Z,50.88
2019-01-24T10:28:48.810Z,53.15
2019-01-24T10:31:16.507Z,46.02
2019-01-24T10:33:43.917Z,48.45
2019-01-24T10:36:11.479Z,58.90
2019-01-24T10:38:38.939Z,58.13
2019-01-24T10:41:07.017Z,54.90
2019-01-24T10:43:35.080Z,55.70
2019-01-24T10:46:02.534Z,61.02
2019-01-24T10:48:30.041Z,55.45
2019-01-24T10:50:57.580Z,69.77
2019-01-24T10:53:25.053Z,56.95
2019-01-24T10:55:52.594Z,61.53
2019-01-24T10:58:20.136Z,70.10
2019-01-24T11:00:47.802Z,67.67
2019-01-24T11:03:18.087Z,66.28
2019-01-24T11:05:45.632Z,60.40
2019-01-24T11:08:13.280Z,70.45
2019-01-24T11:10:40.719Z,57.35
2019-01-24T11:13:08.605Z,56.18
2019-01-24T11:15:36.177Z,63.73
2019-01-24T11:18:06.860Z,61.88
2019-01-24T11:20:34.541Z,62.30
2019-01-24T11:23:02.466Z,70.95
2019-01-24T11:25:30.266Z,74.03
2019-01-24T11:27:57.711Z,59.63
2019-01-24T11:30:26.717Z,71.28
2019-01-24T11:32:54.701Z,76.17
2019-01-24T11:35:24.854Z,73.35
2019-01-24T11:37:52.595Z,68.30
2019-01-24T11:40:20.033Z,84.32
2019-01-24T11:42:47.637Z,72.87
2019-01-24T11:45:16.509Z,78.57
2019-01-24T11:47:44.218Z,75.80
2019-01-24T11:50:13.873Z,71.92
2019-01-24T11:52:41.380Z,68.97
2019-01-24T11:55:10.021Z,74.42
2019-01-24T11:57:37.537Z,76.62
2019-01-24T12:00:12.341Z,72.45
2019-01-24T12:02:39.978Z,74.97
2019-01-24T12:05:08.862Z,76.35
2019-01-24T12:07:36.534Z,79.90
2019-01-24T12:10:06.643Z,72.58
2019-01-24T12:12:34.373Z,86.05
2019-01-24T12:15:02.630Z,63.17
2019-01-24T12:17:30.184Z,78.22
2019-01-24T12:19:57.697Z,69.58
2019-01-24T12:22:25.376Z,69.35
2019-01-24T12:24:53.179Z,81.65
2019-01-24T12:27:20.968Z,76.95
2019-01-24T12:29:48.525Z,76.92
2019-01-24T12:32:16.544Z,78.87
2019-01-24T12:34:44.105Z,81.22
2019-01-24T12:37:11.704Z,78.83
2019-01-24T12:39:39.311Z,82.92
2019-01-24T12:42:06.975Z,71.92
2019-01-24T12:44:34.807Z,69.72
2019-01-24T12:47:02.423Z,86.28
2019-01-24T12:49:29.936Z,87.02
2019-01-24T12:52:02.808Z,73.75
2019-01-24T12:54:30.447Z,75.95
2019-01-24T12:56:57.938Z,71.60
2019-01-24T12:59:25.402Z,68.00
2019-01-24T13:01:53.039Z,70.70
2019-01-24T13:04:20.473Z,87.25
2019-01-24T13:06:48.063Z,78.55
2019-01-24T13:09:15.692Z,74.67
2019-01-24T13:11:43.243Z,75.62
2019-01-24T13:14:10.799Z,73.60
2019-01-24T13:16:38.307Z,63.78
2019-01-24T13:19:05.948Z,79.58
2019-01-24T13:21:33.443Z,70.10
2019-01-24T13:24:01.039Z,66.15
2019-01-24T13:26:28.545Z,71.90
2019-01-24T13:28:56.089Z,65.95
2019-01-24T13:31:23.680Z,78.75
2019-01-24T13:33:51.240Z,77.53
2019-01-24T13:36:18.868Z,71.60
2019-01-24T13:38:46.535Z,76.25
2019-01-24T13:41:14.015Z,68.75
2019-01-24T13:43:41.498Z,58.35
2019-01-24T13:46:09.061Z,67.70
2019-01-24T13:48:36.996Z,69.22
2019-01-24T13:51:04.430Z,70.65
2019-01-24T13:53:32.117Z,61.30
2019-01-24T13:55:59.756Z,58.45
2019-01-24T13:58:27.293Z,66.95
2019-01-24T14:00:54.951Z,65.92
2019-01-24T14:03:58.713Z,62.85
2019-01-24T14:06:26.219Z,56.45
2019-01-24T14:08:53.926Z,58.05
2019-01-24T14:11:21.488Z,73.05
2019-01-24T14:13:49.358Z,59.05
2019-01-24T14:16:16.911Z,66.97
2019-01-24T14:18:44.543Z,58.83
2019-01-24T14:21:11.926Z,66.55
2019-01-24T14:23:39.576Z,58.02
2019-01-24T14:26:07.193Z,58.65
2019-01-24T14:28:34.779Z,69.30
2019-01-24T14:31:02.300Z,71.28
2019-01-24T14:33:29.839Z,75.42
2019-01-24T14:35:58.817Z,65.42
2019-01-24T14:38:26.827Z,63.92
2019-01-24T14:40:54.308Z,73.78
2019-01-24T14:43:21.903Z,64.05
2019-01-24T14:45:49.548Z,62.48
2019-01-24T14:48:21.587Z,62.62
2019-01-24T14:50:49.405Z,72.62
2019-01-24T14:53:17.251Z,72.82
2019-01-24T14:55:44.814Z,67.10
2019-01-24T14:58:12.349Z,65.17
2019-01-24T15:01:09.466Z,69.75
2019-01-24T15:03:37.121Z,71.42
2019-01-24T15:06:04.864Z,73.78
2019-01-24T15:08:32.430Z,67.53
2019-01-24T15:11:00.231Z,61.70
2019-01-24T15:13:27.887Z,57.43
2019-01-24T15:15:55.446Z,63.00
2019-01-24T15:18:23.049Z,60.25
2019-01-24T15:20:50.570Z,57.95
2019-01-24T15:23:18.461Z,67.45
2019-01-24T15:25:45.854Z,57.20
2019-01-24T15:28:13.431Z,60.55
2019-01-24T15:30:41.295Z,57.65
2019-01-24T15:33:08.825Z,57.93
2019-01-24T15:35:36.260Z,56.15
2019-01-24T15:38:04.068Z,63.75
2019-01-24T15:40:31.724Z,50.80
2019-01-24T15:42:59.819Z,56.58
2019-01-24T15:45:27.702Z,52.65
2019-01-24T15:47:55.578Z,54.33
2019-01-24T15:50:23.843Z,52.90
2019-01-24T15:52:51.416Z,51.25
2019-01-24T15:55:18.946Z,51.10
2019-01-24T15:57:46.456Z,53.85
2019-01-24T16:00:28.385Z,58.58
2019-01-24T16:02:56.085Z,63.90
2019-01-24T16:05:23.615Z,55.92
2019-01-24T16:07:51.211Z,58.58
2019-01-24T16:10:20.302Z,60.10
2019-01-24T16:12:47.848Z,63.95
2019-01-24T16:15:20.973Z,63.40
2019-01-24T16:17:48.679Z,63.20
2019-01-24T16:20:18.522Z,58.13
2019-01-24T16:22:46.047Z,58.75
2019-01-24T16:25:14.682Z,56.18
2019-01-24T16:27:42.654Z,45.43
2019-01-24T16:30:15.553Z,56.13
2019-01-24T16:32:43.232Z,55.63
2019-01-24T16:35:11.251Z,51.15
2019-01-24T16:37:39.013Z,56.02
2019-01-24T16:40:09.260Z,56.55
2019-01-24T16:42:36.804Z,59.15
2019-01-24T16:45:06.223Z,55.50
2019-01-24T16:47:33.867Z,56.28
2019-01-24T16:50:01.421Z,54.40
2019-01-24T16:52:28.953Z,49.60
2019-01-24T16:54:56.452Z,58.70
2019-01-24T16:57:24.050Z,59.33
2019-01-24T16:59:51.602Z,63.50
2019-01-24T17:02:19.108Z,54.73
2019-01-24T17:04:47.984Z,52.50
2019-01-24T17:07:15.587Z,54.30
2019-01-24T17:09:43.197Z,57.90
2019-01-24T17:12:10.859Z,68.95
2019-01-24T17:14:38.440Z,59.55
2019-01-24T17:17:06.039Z,65.83
2019-01-24T17:19:33.640Z,65.65
2019-01-24T17:22:01.224Z,67.50
2019-01-24T17:24:28.671Z,70.52
2019-01-24T17:26:56.903Z,66.25
2019-01-24T17:29:24.318Z,60.03
2019-01-24T17:31:52.039Z,66.17
2019-01-24T17:34:19.578Z,67.72
2019-01-24T17:36:47.225Z,65.17
2019-01-24T17:39:14.687Z,64.47
2019-01-24T17:41:42.475Z,67.25
2019-01-24T17:44:09.971Z,63.68
2019-01-24T17:46:37.503Z,65.55
2019-01-24T17:49:05.013Z,66.47
2019-01-24T17:51:32.639Z,76.92
2019-01-24T17:54:00.700Z,74.42
2019-01-24T17:56:30.515Z,70.57
2019-01-24T17:58:58.317Z,61.55
2019-01-24T18:01:25.897Z,68.37
2019-01-24T18:03:53.428Z,69.20
2019-01-24T18:06:21.042Z,64.47
2019-01-24T18:08:48.767Z,74.92
2019-01-24T18:11:16.306Z,64.90
2019-01-24T18:13:43.780Z,62.58
2019-01-24T18:16:11.250Z,66.00
2019-01-24T18:18:38.854Z,65.57
2019-01-24T18:21:06.328Z,62.55
2019-01-24T18:23:33.892Z,64.87
2019-01-24T18:26:01.365Z,56.48
2019-01-24T18:28:28.979Z,56.85
2019-01-24T18:30:56.511Z,54.15
2019-01-24T18:33:23.988Z,50.75
2019-01-24T18:35:51.575Z,61.88
2019-01-24T18:38:19.203Z,67.97
2019-01-24T18:40:46.695Z,64.00
2019-01-24T18:43:20.987Z,66.42
2019-01-24T18:45:49.366Z,70.25
2019-01-24T18:48:16.879Z,67.08
2019-01-24T18:50:45.632Z,62.50
2019-01-24T18:53:13.155Z,62.88
2019-01-24T18:55:40.755Z,68.72
2019-01-24T18:58:08.348Z,69.50
2019-01-24T19:00:38.199Z,67.87
2019-01-24T19:03:07.081Z,66.90
2019-01-24T19:05:34.977Z,67.97
2019-01-24T19:08:03.547Z,70.22
2019-01-24T19:10:31.403Z,71.57
2019-01-24T19:12:58.867Z,70.03
2019-01-24T19:15:26.503Z,79.55
2019-01-24T19:17:54.186Z,87.90
2019-01-24T19:20:21.791Z,97.65
2019-01-24T19:22:49.429Z,85.25
2019-01-24T19:25:17.933Z,87.78
2019-01-24T19:27:45.363Z,90.53
2019-01-24T19:30:16.834Z,89.60
2019-01-24T19:32:44.420Z,85.53
2019-01-24T19:35:11.931Z,70.80
2019-01-24T19:37:39.541Z,81.05
2019-01-24T19:40:08.639Z,72.58
2019-01-24T19:42:36.193Z,72.20
2019-01-24T19:45:07.841Z,89.03
2019-01-24T19:47:35.437Z,84.00
2019-01-24T19:50:04.183Z,80.32
2019-01-24T19:52:31.700Z,85.20
2019-01-24T19:54:59.659Z,81.75
2019-01-24T19:57:27.110Z,75.40
2019-01-24T19:59:54.706Z,82.20
2019-01-24T20:02:22.199Z,90.30
2019-01-24T20:04:49.664Z,77.62
2019-01-24T20:07:17.122Z,83.87
2019-01-24T20:09:44.602Z,87.08
2019-01-24T20:12:12.086Z,72.37
2019-01-24T20:14:39.795Z,85.40
2019-01-24T20:17:07.347Z,81.80
2019-01-24T20:19:34.870Z,82.72
2019-01-24T20:22:02.345Z,80.87
2019-01-24T20:24:29.905Z,82.37
2019-01-24T20:26:57.665Z,80.92
2019-01-24T20:29:25.275Z,89.97
2019-01-24T20:31:52.848Z,83.65
2019-01-24T20:34:20.374Z,78.95
2019-01-24T20:36:47.951Z,83.87
2019-01-24T20:39:15.581Z,76.65
2019-01-24T20:41:43.524Z,82.17
2019-01-24T20:44:11.197Z,85.28
2019-01-24T20:46:39.195Z,83.60
2019-01-24T20:49:07.030Z,86.63
2019-01-24T20:51:34.925Z,93.40
2019-01-24T20:54:02.655Z,87.60
2019-01-24T20:56:32.027Z,86.55
2019-01-24T20:58:59.728Z,93.92
2019-01-24T21:01:27.422Z,72.00
2019-01-24T21:03:55.378Z,95.72
2019-01-24T21:06:23.469Z,90.55
2019-01-24T21:08:51.151Z,85.97
2019-01-24T21:11:18.755Z,82.37
2019-01-24T21:13:46.488Z,75.62
2019-01-24T21:16:14.157Z,86.63
2019-01-24T21:18:42.141Z,94.95
2019-01-24T21:21:09.820Z,73.97
2019-01-24T21:23:37.498Z,78.28
2019-01-24T21:26:05.137Z,78.12
2019-01-24T21:28:32.675Z,82.97
2019-01-24T21:31:00.697Z,84.20
2019-01-24T21:33:28.241Z,90.28
2019-01-24T21:35:55.824Z,77.27
2019-01-24T21:38:23.288Z,81.67
2019-01-24T21:40:50.911Z,85.28
2019-01-24T21:43:18.419Z,76.33
2019-01-24T21:45:45.890Z,82.17
2019-01-24T21:48:13.304Z,77.37
2019-01-24T21:50:40.911Z,78.07
2019-01-24T21:53:08.487Z,71.40
2019-01-24T21:55:36.173Z,72.22
2019-01-24T21:58:05.366Z,77.80
2019-01-24T22:00:32.929Z,79.62
2019-01-24T22:03:00.499Z,71.33
2019-01-24T22:05:29.107Z,85.70
2019-01-24T22:07:56.721Z,74.25
2019-01-24T22:10:26.033Z,78.12
2019-01-24T22:12:53.660Z,71.22
2019-01-24T22:15:23.319Z,78.83
2019-01-24T22:17:50.928Z,70.35
2019-01-24T22:20:18.573Z,79.12
2019-01-24T22:22:46.243Z,82.40
2019-01-24T22:25:19.004Z,70.78
2019-01-24T22:27:46.878Z,75.78
2019-01-24T22:30:17.850Z,75.05
2019-01-24T22:32:45.424Z,69.72
2019-01-24T22:35:13.393Z,70.47
2019-01-24T22:37:40.999Z,83.15
2019-01-24T22:40:09.443Z,79.70
2019-01-24T22:42:36.968Z,83.80
2019-01-24T22:45:05.180Z,72.97
2019-01-24T22:47:32.602Z,66.60
2019-01-24T22:50:00.216Z,76.95
2019-01-24T22:52:27.770Z,75.72
2019-01-24T22:54:55.392Z,77.85
2019-01-24T22:57:22.969Z,75.75
2019-01-24T22:59:50.506Z,82.42
2019-01-24T23:02:22.182Z,72.50
2019-01-24T23:04:49.643Z,77.53
2019-01-24T23:07:17.303Z,84.80
2019-01-24T23:09:44.844Z,73.15
2019-01-24T23:12:12.519Z,72.05
2019-01-24T23:14:40.076Z,79.53
2019-01-24T23:17:07.923Z,82.17
2019-01-24T23:19:35.359Z,67.32
2019-01-24T23:22:03.791Z,63.75
2019-01-24T23:24:31.310Z,74.95
2019-01-24T23:26:58.681Z,71.67
2019-01-24T23:29:26.139Z,70.95
2019-01-24T23:31:53.563Z,70.00
2019-01-24T23:34:21.016Z,75.28
2019-01-24T23:36:48.444Z,67.92
2019-01-24T23:39:15.971Z,62.85
2019-01-24T23:41:43.540Z,70.42
2019-01-24T23:44:10.993Z,60.85
2019-01-24T23:46:38.386Z,60.17
2019-01-24T23:49:06.303Z,68.60
2019-01-24T23:51:33.903Z,61.23
2019-01-24T23:54:01.553Z,59.35
2019-01-24T23:56:29.162Z,59.30
2019-01-24T23:58:56.652Z,63.05
